Flight Track Log - Related Links

Times and Time Zones

All times are in EDT time to prevent confusion due to time zone crossing. See the GJS3710 flight status page for this flight to view local times or setup timezone preferences in your user account.

Time Position Orientation Groundspeed Altitude Reporting Facility
EDT Latitude Longitude Course Direction KTS MPH feet Rate Location/Type
Fri 07:28:44 PM 38.7333 -90.3167 19° North 156 180 1,900  Level Gateway (St. Louis) TRACON
Fri 07:29:44 PM 38.7500 -90.2667 67° East 214 246 4,000 2,150 Climbing Gateway (St. Louis) TRACON
Fri 07:30:44 PM 38.8167 -90.2333 21° North 269 310 6,200 2,496 Climbing Gateway (St. Louis) TRACON
Fri 07:31:00 PM 38.9432 -90.1307 18° North  Level FlightAware Approximate
Fri 07:31:49 PM 38.8867 -90.1889 26° Northeast 262 302 9,200  Level Kansas City Center
Fri 07:32:00 PM 39.0271 -90.0965 14° North  Level FlightAware Approximate
Fri 07:32:51 PM 38.9631 -90.1492 22° Northeast 288 331 11,300  Level Kansas City Center
Fri 07:33:00 PM 39.1124 -90.0681 14° North  Level FlightAware Approximate
Fri 07:33:53 PM 39.0539 -90.1008 22° Northeast 344 396 12,800  Level Kansas City Center
Fri 07:34:00 PM 39.1908 -90.0393 19° North  Level FlightAware Approximate
Fri 07:34:55 PM 39.1486 -90.0494 23° Northeast 366 421 14,700  Level Kansas City Center
Fri 07:35:58 PM 39.2653 -89.9872 22° Northeast 376 433 17,100 1,872 Climbing Kansas City Center
Fri 07:37:00 PM 39.3650 -89.9336 23° Northeast 385 443 18,600 1,452 Climbing Kansas City Center
Fri 07:38:02 PM 39.4669 -89.8800 22° Northeast 393 452 20,100 1,161 Climbing Kansas City Center
Fri 07:39:04 PM 39.5708 -89.8233 23° Northeast 401 461 21,000 435 Climbing Kansas City Center
Fri 07:40:06 PM 39.6786 -89.7644 23° Northeast 415 478 21,000  Level Kansas City Center
Fri 07:41:08 PM 39.8075 -89.6958 22° Northeast 423 487 21,000  Level Kansas City Center
Fri 07:42:10 PM 39.9067 -89.6150 32° Northeast 421 484 21,000  Level Kansas City Center
Fri 07:43:12 PM 40.0017 -89.5233 36° Northeast 425 489 21,000  Level Kansas City Center
Fri 07:44:14 PM 40.0964 -89.4333 36° Northeast 423 487 21,000  Level Kansas City Center
Fri 07:44:39 PM 40.1325 -89.3981 37° Northeast 422 486 21,000  Level Chicago Center
Fri 07:45:42 PM 40.2267 -89.3078 36° Northeast 422 486 21,000  Level Chicago Center
Fri 07:46:44 PM 40.3406 -89.1997 36° Northeast 423 487 21,000  Level Chicago Center
Fri 07:47:46 PM 40.4347 -89.1075 37° Northeast 424 488 21,000  Level Chicago Center
Fri 07:48:48 PM 40.5289 -89.0167 36° Northeast 424 488 21,000  Level Chicago Center
Fri 07:49:50 PM 40.6228 -88.9261 36° Northeast 423 487 21,000  Level Chicago Center
Fri 07:50:52 PM 40.7172 -88.8347 36° Northeast 420 483 21,000 -242 Level Chicago Center
Fri 07:51:54 PM 40.8244 -88.7322 36° Northeast 407 468 20,500 -1,016 Descending Chicago Center
Fri 07:52:56 PM 40.9278 -88.7172 North 368 423 18,900 -1,306 Descending Chicago Center
Fri 07:53:58 PM 41.0264 -88.7031 North 356 410 17,800 -1,306 Descending Chicago Center
Fri 07:55:00 PM 41.1239 -88.6872 North 354 407 16,200 -1,548 Descending Chicago Center
Fri 07:56:02 PM 41.2136 -88.6744 North 331 381 14,600 -1,536 Descending Chicago Center
Fri 07:57:05 PM 41.3206 -88.6583 North 323 372 13,000 -1,392 Descending Chicago Center
Fri 07:58:07 PM 41.4047 -88.6442 North 310 357 11,700 -968 Descending Chicago Center
Fri 07:59:09 PM 41.4661 -88.5719 41° Northeast 298 343 11,000 -339 Descending Chicago Center
Fri 08:00:11 PM 41.5222 -88.5000 44° Northeast 285 328 11,000 -532 Level Chicago Center
Fri 08:01:13 PM 41.5522 -88.4039 67° East 293 337 9,900 -1,355 Descending Chicago Center
Fri 08:02:15 PM 41.6008 -88.3233 51° Northeast 283 326 8,200 -919 Descending Chicago Center
Fri 08:03:17 PM 41.6642 -88.2356 46° Northeast 274 315 8,000 -484 Descending Chicago Center
Fri 08:04:19 PM 41.7178 -88.1792 38° Northeast 246 283 7,200 -1,065 Descending Chicago Center
Fri 08:05:21 PM 41.7633 -88.1236 42° Northeast 227 261 5,800 -1,355 Descending Chicago Center
Fri 08:06:23 PM 41.8100 -88.0683 41° Northeast 225 259 4,400 -1,210 Descending Chicago Center
Fri 08:07:25 PM 41.8544 -88.0186 40° Northeast 219 252 3,300 -1,065 Descending Chicago Center

Login

Don't have an account? Register now (free) for customized features, flight alerts, and more!